createdAt,value
2024-01-22T00:00:17.648Z,0.57
2024-01-22T00:01:17.699Z,0.55
2024-01-22T00:02:17.780Z,0.55
2024-01-22T00:03:17.932Z,0.56
2024-01-22T00:04:17.911Z,0.55
2024-01-22T00:05:17.967Z,0.55
2024-01-22T00:06:18.126Z,0.55
2024-01-22T00:07:18.105Z,0.55
2024-01-22T00:08:18.179Z,0.55
2024-01-22T00:09:18.284Z,0.55
2024-01-22T00:10:18.331Z,0.56
2024-01-22T00:11:18.387Z,0.55
2024-01-22T00:12:18.489Z,0.56
2024-01-22T00:13:18.494Z,0.53
2024-01-22T00:14:18.546Z,0.55
2024-01-22T00:15:18.758Z,0.54
2024-01-22T00:16:18.680Z,0.55
2024-01-22T00:17:18.709Z,0.53
2024-01-22T00:18:18.941Z,0.55
2024-01-22T00:19:19.015Z,0.54
2024-01-22T00:20:18.922Z,0.53
2024-01-22T00:21:19.029Z,0.53
2024-01-22T00:22:19.049Z,0.54
2024-01-22T00:23:19.133Z,0.54
2024-01-22T00:24:19.196Z,0.53
2024-01-22T00:25:19.280Z,0.53
2024-01-22T00:26:19.294Z,0.54
2024-01-22T00:27:19.486Z,0.53
2024-01-22T00:28:19.434Z,0.53
2024-01-22T00:29:19.512Z,0.53
2024-01-22T00:30:19.607Z,0.54
2024-01-22T00:31:19.663Z,0.53
2024-01-22T00:32:19.733Z,0.54
2024-01-22T00:33:19.838Z,0.54
2024-01-22T00:34:19.890Z,0.53
2024-01-22T00:35:19.941Z,0.53
2024-01-22T00:36:20.070Z,0.55
2024-01-22T00:37:20.053Z,0.54
2024-01-22T00:38:20.124Z,0.54
2024-01-22T00:39:20.212Z,0.52
2024-01-22T00:40:20.269Z,0.53
2024-01-22T00:41:20.321Z,0.53
2024-01-22T00:42:20.431Z,0.53
2024-01-22T00:43:20.468Z,0.53
2024-01-22T00:44:20.537Z,0.54
2024-01-22T00:45:20.756Z,0.54
2024-01-22T00:46:20.657Z,0.52
2024-01-22T00:47:20.723Z,0.54
2024-01-22T00:48:20.977Z,0.54
2024-01-22T00:49:20.963Z,0.54
2024-01-22T00:50:20.924Z,0.53
2024-01-22T00:51:21.027Z,0.54
2024-01-22T00:52:21.058Z,0.55
2024-01-22T00:53:21.123Z,0.55
2024-01-22T00:54:21.216Z,0.54
2024-01-22T00:55:21.261Z,0.54
2024-01-22T00:56:21.334Z,0.55
2024-01-22T00:57:21.448Z,0.54
2024-01-22T00:58:21.470Z,0.55
2024-01-22T00:59:21.555Z,0.54
2024-01-22T01:00:21.656Z,0.54
2024-01-22T01:01:21.722Z,0.55
2024-01-22T01:02:21.730Z,0.53
2024-01-22T01:03:21.941Z,0.55
2024-01-22T01:04:21.892Z,0.54
2024-01-22T01:05:22.015Z,0.55
2024-01-22T01:06:22.040Z,0.54
2024-01-22T01:07:22.082Z,0.55
2024-01-22T01:08:22.132Z,0.55
2024-01-22T01:09:22.254Z,0.56
2024-01-22T01:10:22.269Z,0.55
2024-01-22T01:11:22.359Z,0.55
2024-01-22T01:12:22.472Z,0.54
2024-01-22T01:13:22.474Z,0.57
2024-01-22T01:14:22.549Z,0.55
2024-01-22T01:15:22.669Z,0.54
2024-01-22T01:16:22.689Z,0.55
2024-01-22T01:17:22.862Z,0.53
2024-01-22T01:18:22.934Z,0.53
2024-01-22T01:19:23.048Z,0.55
2024-01-22T01:20:22.988Z,0.53
2024-01-22T01:21:23.076Z,0.54
2024-01-22T01:22:23.112Z,0.53
2024-01-22T01:23:23.178Z,0.53
2024-01-22T01:24:23.239Z,0.53
2024-01-22T01:25:23.301Z,0.55
2024-01-22T01:26:23.382Z,0.53
2024-01-22T01:27:23.474Z,0.54
2024-01-22T01:28:23.581Z,0.54
2024-01-22T01:29:23.601Z,0.53
2024-01-22T01:30:23.626Z,0.54
2024-01-22T01:31:23.696Z,0.53
2024-01-22T01:32:23.776Z,0.53
2024-01-22T01:33:23.948Z,0.53
2024-01-22T01:34:23.896Z,0.52
2024-01-22T01:35:23.934Z,0.54
2024-01-22T01:36:23.999Z,0.54
2024-01-22T01:37:24.073Z,0.55
2024-01-22T01:38:24.144Z,0.54
2024-01-22T01:39:24.213Z,0.53
2024-01-22T01:40:24.264Z,0.53
2024-01-22T01:41:24.328Z,0.54
2024-01-22T01:42:24.386Z,0.54
2024-01-22T01:43:24.442Z,0.53
2024-01-22T01:44:24.497Z,0.54
2024-01-22T01:45:24.627Z,0.55
2024-01-22T01:46:24.633Z,0.54
2024-01-22T01:47:24.700Z,0.54
2024-01-22T01:48:24.851Z,0.54
2024-01-22T01:49:24.817Z,0.54
2024-01-22T01:50:24.847Z,0.54
2024-01-22T01:51:24.896Z,0.55
2024-01-22T01:52:24.978Z,0.52
2024-01-22T01:53:25.014Z,0.54
2024-01-22T01:54:25.055Z,0.54
2024-01-22T01:55:25.092Z,0.55
2024-01-22T01:56:25.150Z,0.55
2024-01-22T01:57:25.205Z,0.55
2024-01-22T01:58:25.249Z,0.53
2024-01-22T01:59:25.277Z,0.55
2024-01-22T02:00:25.457Z,0.54
2024-01-22T02:01:25.423Z,0.53
2024-01-22T02:02:25.436Z,0.54
2024-01-22T02:03:25.489Z,0.53
2024-01-22T02:04:25.472Z,0.53
2024-01-22T02:05:25.617Z,0.53
2024-01-22T02:06:25.587Z,0.52
2024-01-22T02:07:25.602Z,0.53
2024-01-22T02:08:25.633Z,0.54
2024-01-22T02:09:25.632Z,0.53
2024-01-22T02:10:25.665Z,0.54
2024-01-22T02:11:25.717Z,0.52
2024-01-22T02:12:25.762Z,0.53
2024-01-22T02:13:25.808Z,0.52
2024-01-22T02:14:25.816Z,0.54
2024-01-22T02:15:25.892Z,0.53
2024-01-22T02:16:25.880Z,0.53
2024-01-22T02:17:26.026Z,0.54
2024-01-22T02:18:26.125Z,0.54
2024-01-22T02:19:26.124Z,0.54
2024-01-22T02:20:26.051Z,0.53
2024-01-22T02:21:26.081Z,0.54
2024-01-22T02:22:26.108Z,0.55
2024-01-22T02:23:26.156Z,0.53
2024-01-22T02:24:26.128Z,0.53
2024-01-22T02:25:26.157Z,0.54
2024-01-22T02:26:26.186Z,0.54
2024-01-22T02:27:26.228Z,0.55
2024-01-22T02:28:26.226Z,0.54
2024-01-22T02:29:26.203Z,0.54
2024-01-22T02:30:26.304Z,0.56
2024-01-22T02:31:26.239Z,0.54
2024-01-22T02:32:26.246Z,0.55
2024-01-22T02:33:26.388Z,0.54
2024-01-22T02:34:26.336Z,0.55
2024-01-22T02:35:26.257Z,0.56
2024-01-22T02:36:26.289Z,0.56
2024-01-22T02:37:26.275Z,0.55
2024-01-22T02:38:26.333Z,0.57
2024-01-22T02:39:26.279Z,0.55
2024-01-22T02:40:26.324Z,0.56
2024-01-22T02:41:26.290Z,0.56
2024-01-22T02:42:26.314Z,0.56
2024-01-22T02:43:26.338Z,0.54
2024-01-22T02:44:26.332Z,0.56
2024-01-22T02:45:26.382Z,0.57
2024-01-22T02:46:26.439Z,0.55
2024-01-22T02:47:26.482Z,0.56
2024-01-22T02:48:26.497Z,0.56
2024-01-22T02:49:26.630Z,0.56
2024-01-22T02:50:26.484Z,0.57
2024-01-22T02:51:26.546Z,0.56
2024-01-22T02:52:26.605Z,0.54
2024-01-22T02:53:26.664Z,0.55
2024-01-22T02:54:26.724Z,0.56
2024-01-22T02:55:26.764Z,0.56
2024-01-22T02:56:26.822Z,0.54
2024-01-22T02:57:26.917Z,0.55
2024-01-22T02:58:26.945Z,0.55
2024-01-22T02:59:26.996Z,0.53
2024-01-22T03:00:27.233Z,0.56
2024-01-22T03:01:27.138Z,0.55
2024-01-22T03:02:27.241Z,0.55
2024-01-22T03:03:27.288Z,0.55
2024-01-22T03:04:27.427Z,0.55
2024-01-22T03:05:27.327Z,0.55
2024-01-22T03:06:27.480Z,0.54
2024-01-22T03:07:27.456Z,0.56
2024-01-22T03:08:27.505Z,0.55
2024-01-22T03:09:27.579Z,0.56
2024-01-22T03:10:27.664Z,0.56
2024-01-22T03:11:27.713Z,0.55
2024-01-22T03:12:27.791Z,0.56
2024-01-22T03:13:27.768Z,0.55
2024-01-22T03:14:27.814Z,0.54
2024-01-22T03:15:27.891Z,0.56
2024-01-22T03:16:27.962Z,0.56
2024-01-22T03:17:28.055Z,0.54
2024-01-22T03:18:28.091Z,0.54
2024-01-22T03:19:28.216Z,0.55
2024-01-22T03:20:28.101Z,0.55
2024-01-22T03:21:28.227Z,0.54
2024-01-22T03:22:28.201Z,0.54
2024-01-22T03:23:28.233Z,0.55
2024-01-22T03:24:30.864Z,0.54
2024-01-22T03:25:28.367Z,0.53
2024-01-22T03:26:28.287Z,0.54
2024-01-22T03:27:28.282Z,0.54
2024-01-22T03:28:28.288Z,0.54
2024-01-22T03:29:28.287Z,0.53
2024-01-22T03:30:28.324Z,0.54
2024-01-22T03:31:28.293Z,0.54
2024-01-22T03:32:28.316Z,0.54
2024-01-22T03:33:28.411Z,0.54
2024-01-22T03:34:28.300Z,0.52
2024-01-22T03:35:28.298Z,0.54
2024-01-22T03:36:28.296Z,0.54
2024-01-22T03:37:28.305Z,0.51
2024-01-22T03:38:28.311Z,0.53
2024-01-22T03:39:28.450Z,0.53
2024-01-22T03:40:28.303Z,0.53
2024-01-22T03:41:28.330Z,0.53
2024-01-22T03:42:28.305Z,0.53
2024-01-22T03:43:28.309Z,0.54
2024-01-22T03:44:28.316Z,0.53
2024-01-22T03:45:28.305Z,0.53
2024-01-22T03:46:28.313Z,0.52
2024-01-22T03:47:28.334Z,0.53
2024-01-22T03:48:28.381Z,0.53
2024-01-22T03:49:28.467Z,0.54
2024-01-22T03:50:28.381Z,0.54
2024-01-22T03:51:28.354Z,0.55
2024-01-22T03:52:28.335Z,0.54
2024-01-22T03:53:28.324Z,0.54
2024-01-22T03:54:28.318Z,0.54
2024-01-22T03:55:28.363Z,0.54
2024-01-22T03:56:28.311Z,0.53
2024-01-22T03:57:28.330Z,0.53
2024-01-22T03:58:28.330Z,0.54
2024-01-22T03:59:28.365Z,0.53
2024-01-22T04:00:28.370Z,0.53
2024-01-22T04:01:28.336Z,0.56
2024-01-22T04:02:28.335Z,0.53
2024-01-22T04:03:28.501Z,0.53
2024-01-22T04:04:28.422Z,0.52
2024-01-22T04:05:28.404Z,0.53
2024-01-22T04:06:28.585Z,0.54
2024-01-22T04:07:28.502Z,0.54
2024-01-22T04:08:28.525Z,0.54
2024-01-22T04:09:28.546Z,0.54
2024-01-22T04:10:28.578Z,0.52
2024-01-22T04:11:28.629Z,0.52
2024-01-22T04:12:28.732Z,0.52
2024-01-22T04:13:34.882Z,0.52
2024-01-22T04:14:29.723Z,0.52
2024-01-22T04:15:28.726Z,0.52
2024-01-22T04:16:28.736Z,0.52
2024-01-22T04:17:28.748Z,0.53
2024-01-22T04:18:28.872Z,0.53
2024-01-22T04:19:28.794Z,0.52
2024-01-22T04:20:28.733Z,0.52
2024-01-22T04:21:28.744Z,0.53
2024-01-22T04:22:28.777Z,0.54
2024-01-22T04:23:28.833Z,0.53
2024-01-22T04:24:28.922Z,0.54
2024-01-22T04:25:28.969Z,0.54
2024-01-22T04:26:29.048Z,0.53
2024-01-22T04:27:29.121Z,0.53
2024-01-22T04:28:29.183Z,0.54
2024-01-22T04:29:36.762Z,0.50
2024-01-22T04:30:38.842Z,0.50
2024-01-22T04:31:47.645Z,0.50
2024-01-22T04:32:47.741Z,0.50
2024-01-22T04:33:47.703Z,0.50
2024-01-22T04:34:47.648Z,0.50
2024-01-22T04:35:47.668Z,0.50
2024-01-22T04:36:47.629Z,0.50
2024-01-22T04:37:47.646Z,0.50
2024-01-22T04:38:47.643Z,0.51
2024-01-22T04:39:47.645Z,0.51
2024-01-22T04:40:47.634Z,0.51
2024-01-22T04:41:47.686Z,0.51
2024-01-22T04:42:47.652Z,0.50
2024-01-22T04:43:47.641Z,0.50
2024-01-22T04:44:47.667Z,0.51
2024-01-22T04:45:47.686Z,0.51
2024-01-22T04:46:47.655Z,0.51
2024-01-22T04:47:47.748Z,0.52
2024-01-22T04:48:47.850Z,0.52
2024-01-22T04:49:47.716Z,0.52
2024-01-22T04:50:47.679Z,0.52
2024-01-22T04:51:47.651Z,0.52
2024-01-22T04:52:47.655Z,0.52
2024-01-22T04:53:47.667Z,0.51
2024-01-22T04:54:47.660Z,0.52
2024-01-22T04:55:47.664Z,0.52
2024-01-22T04:56:47.663Z,0.51
2024-01-22T04:57:47.661Z,0.51
2024-01-22T04:58:47.657Z,0.51
2024-01-22T04:59:47.681Z,0.52
2024-01-22T05:00:47.759Z,0.52
2024-01-22T05:01:47.738Z,0.50
2024-01-22T05:02:47.901Z,0.51
2024-01-22T05:03:47.969Z,0.51
2024-01-22T05:04:47.917Z,0.51
2024-01-22T05:05:48.045Z,0.50
2024-01-22T05:06:48.146Z,0.50
2024-01-22T05:07:48.122Z,0.51
2024-01-22T05:08:48.224Z,0.51
2024-01-22T05:09:48.219Z,0.52
2024-01-22T05:10:48.301Z,0.51
2024-01-22T05:11:48.417Z,0.51
2024-01-22T05:12:48.471Z,0.51
2024-01-22T05:13:48.451Z,0.51
2024-01-22T05:14:48.519Z,0.51
2024-01-22T05:15:48.549Z,0.50
2024-01-22T05:16:48.616Z,0.51
2024-01-22T05:17:48.867Z,0.51
2024-01-22T05:18:48.836Z,0.52
2024-01-22T05:19:48.824Z,0.52
2024-01-22T05:20:48.886Z,0.51
2024-01-22T05:21:48.931Z,0.52
2024-01-22T05:22:48.976Z,0.51
2024-01-22T05:23:49.074Z,0.51
2024-01-22T05:24:49.077Z,0.51
2024-01-22T05:25:49.141Z,0.52
2024-01-22T05:26:49.223Z,0.52
2024-01-22T05:27:49.272Z,0.51
2024-01-22T05:28:49.317Z,0.52
2024-01-22T05:29:49.399Z,0.51
2024-01-22T05:30:49.434Z,0.52
2024-01-22T05:31:49.558Z,0.51
2024-01-22T05:32:53.118Z,0.51
2024-01-22T05:33:49.645Z,0.53
2024-01-22T05:34:49.716Z,0.53
2024-01-22T05:35:49.603Z,0.53
2024-01-22T05:36:49.552Z,0.52
2024-01-22T05:37:49.569Z,0.52
2024-01-22T05:38:49.584Z,0.52
2024-01-22T05:39:49.561Z,0.52
2024-01-22T05:40:49.561Z,0.53
2024-01-22T05:41:49.586Z,0.52
2024-01-22T05:42:49.557Z,0.51
2024-01-22T05:43:49.573Z,0.52
2024-01-22T05:44:49.632Z,0.51
2024-01-22T05:45:49.569Z,0.51
2024-01-22T05:46:49.577Z,0.52
2024-01-22T05:47:50.362Z,0.52
2024-01-22T05:48:49.752Z,0.52
2024-01-22T05:49:49.575Z,0.52
2024-01-22T05:50:49.659Z,0.52
2024-01-22T05:51:49.571Z,0.52
2024-01-22T05:52:49.578Z,0.52
2024-01-22T05:53:49.605Z,0.52
2024-01-22T05:54:49.578Z,0.53
2024-01-22T05:55:49.656Z,0.52
2024-01-22T05:56:49.617Z,0.52
2024-01-22T05:57:49.586Z,0.51
2024-01-22T05:58:49.596Z,0.52
2024-01-22T05:59:49.594Z,0.52
2024-01-22T06:00:49.651Z,0.52
2024-01-22T06:01:49.709Z,0.52
2024-01-22T06:02:49.844Z,0.51
2024-01-22T06:03:49.869Z,0.53
2024-01-22T06:04:49.854Z,0.53
2024-01-22T06:05:50.045Z,0.51
2024-01-22T06:06:50.042Z,0.51
2024-01-22T06:07:50.051Z,0.51
2024-01-22T06:08:50.135Z,0.52
2024-01-22T06:09:55.461Z,0.52
2024-01-22T06:10:51.170Z,0.52
2024-01-22T06:11:50.172Z,0.52
2024-01-22T06:12:50.143Z,0.52
2024-01-22T06:13:57.841Z,0.53
2024-01-22T06:14:51.183Z,0.53
2024-01-22T06:15:50.152Z,0.52
2024-01-22T06:16:50.145Z,0.52
2024-01-22T06:17:50.197Z,0.52
2024-01-22T06:18:50.282Z,0.51
2024-01-22T06:19:50.248Z,0.50
2024-01-22T06:20:50.181Z,0.51
2024-01-22T06:21:50.156Z,0.51
2024-01-22T06:22:50.169Z,0.51
2024-01-22T06:23:50.174Z,0.51
2024-01-22T06:24:50.169Z,0.51
2024-01-22T06:25:50.209Z,0.51
2024-01-22T06:26:50.321Z,0.50
2024-01-22T06:27:50.325Z,0.51
2024-01-22T06:28:50.401Z,0.51
2024-01-22T06:29:50.496Z,0.51
2024-01-22T06:30:50.486Z,0.52
2024-01-22T06:31:50.550Z,0.52
2024-01-22T06:32:50.843Z,0.53
2024-01-22T06:33:50.759Z,0.51
2024-01-22T06:34:50.888Z,0.53
2024-01-22T06:35:50.855Z,0.53
2024-01-22T06:36:50.833Z,0.51
2024-01-22T06:37:50.889Z,0.52
2024-01-22T06:38:51.028Z,0.52
2024-01-22T06:39:51.000Z,0.52
2024-01-22T06:40:53.159Z,0.51
2024-01-22T06:41:51.150Z,0.52
2024-01-22T06:42:51.257Z,0.53
2024-01-22T06:43:51.340Z,0.52
2024-01-22T06:44:51.313Z,0.54
2024-01-22T06:45:51.354Z,0.52
2024-01-22T06:46:51.424Z,0.53
2024-01-22T06:47:51.559Z,0.54
2024-01-22T06:48:51.665Z,0.56
2024-01-22T06:49:51.536Z,0.59
2024-01-22T06:50:51.633Z,0.61
2024-01-22T06:51:51.685Z,0.62
2024-01-22T06:52:51.837Z,0.66
2024-01-22T06:53:51.691Z,0.65
2024-01-22T06:54:51.715Z,0.69
2024-01-22T06:55:51.805Z,0.72
2024-01-22T06:56:51.799Z,0.75
2024-01-22T06:57:51.875Z,0.83
2024-01-22T06:58:51.805Z,0.85
2024-01-22T06:59:54.365Z,0.90
2024-01-22T07:00:51.786Z,0.93
2024-01-22T07:01:51.770Z,0.97
2024-01-22T07:02:51.879Z,1.00
2024-01-22T07:03:51.970Z,1.06
2024-01-22T07:04:51.819Z,1.09
2024-01-22T07:05:51.930Z,1.13
2024-01-22T07:06:51.902Z,1.19
2024-01-22T07:07:51.810Z,1.23
2024-01-22T07:08:51.796Z,1.31
2024-01-22T07:09:51.840Z,1.34
2024-01-22T07:10:51.783Z,1.43
2024-01-22T07:11:51.842Z,1.46
2024-01-22T07:12:51.825Z,1.55
2024-01-22T07:13:51.797Z,1.62
2024-01-22T07:14:51.868Z,1.67
2024-01-22T07:15:51.850Z,1.72
2024-01-22T07:16:51.814Z,1.76
2024-01-22T07:17:51.957Z,1.83
2024-01-22T07:18:51.963Z,1.87
2024-01-22T07:19:51.903Z,1.88
2024-01-22T07:20:51.815Z,1.87
2024-01-22T07:21:51.810Z,1.91
2024-01-22T07:22:51.831Z,1.93
2024-01-22T07:23:51.915Z,1.97
2024-01-22T07:24:51.819Z,1.96
2024-01-22T07:25:51.861Z,1.93
2024-01-22T07:26:51.844Z,1.95
2024-01-22T07:27:51.833Z,1.90
2024-01-22T07:28:53.117Z,1.91
2024-01-22T07:29:51.869Z,1.83
2024-01-22T07:30:51.818Z,1.88
2024-01-22T07:31:51.802Z,1.80
2024-01-22T07:32:51.895Z,1.84
2024-01-22T07:33:51.884Z,1.78
2024-01-22T07:34:51.888Z,1.77
2024-01-22T07:35:51.828Z,1.78
2024-01-22T07:36:51.798Z,1.79
2024-01-22T07:37:51.822Z,1.77
2024-01-22T07:38:51.874Z,1.73
2024-01-22T07:39:51.830Z,1.72
2024-01-22T07:40:54.121Z,1.73
2024-01-22T07:41:51.863Z,1.73
2024-01-22T07:42:51.856Z,1.73
2024-01-22T07:43:51.824Z,1.75
2024-01-22T07:44:51.871Z,1.79
2024-01-22T07:45:51.822Z,1.82
2024-01-22T07:46:51.910Z,1.86
2024-01-22T07:47:51.946Z,1.88
2024-01-22T07:48:51.928Z,1.84
2024-01-22T07:49:51.896Z,1.88
2024-01-22T07:50:51.848Z,1.86
2024-01-22T07:51:51.849Z,1.90
2024-01-22T07:52:52.356Z,1.94
2024-01-22T07:53:51.878Z,1.95
2024-01-22T07:54:51.859Z,1.90
2024-01-22T07:55:51.899Z,1.89
2024-01-22T07:56:51.944Z,1.88
2024-01-22T07:57:51.919Z,1.90
2024-01-22T07:58:51.878Z,1.85
2024-01-22T07:59:51.944Z,1.85
2024-01-22T08:00:51.910Z,1.86
2024-01-22T08:01:51.882Z,1.83
2024-01-22T08:02:51.906Z,1.83
2024-01-22T08:03:51.945Z,1.84
2024-01-22T08:04:51.958Z,1.85
2024-01-22T08:05:51.922Z,1.83
2024-01-22T08:06:52.055Z,1.83
2024-01-22T08:07:52.391Z,1.83
2024-01-22T08:08:51.947Z,1.85
2024-01-22T08:09:51.903Z,1.87
2024-01-22T08:10:51.928Z,1.93
2024-01-22T08:11:51.935Z,1.96
2024-01-22T08:12:51.938Z,1.95
2024-01-22T08:13:51.943Z,2.01
2024-01-22T08:14:51.924Z,1.99
2024-01-22T08:15:51.956Z,2.04
2024-01-22T08:16:51.982Z,2.03
2024-01-22T08:17:52.110Z,1.99
2024-01-22T08:18:52.250Z,1.99
2024-01-22T08:19:52.185Z,2.00
2024-01-22T08:20:52.247Z,2.00
2024-01-22T08:21:52.297Z,1.94
2024-01-22T08:22:52.346Z,1.97
2024-01-22T08:23:52.410Z,1.97
2024-01-22T08:24:52.443Z,1.93
2024-01-22T08:25:52.484Z,2.00
2024-01-22T08:26:52.571Z,2.00
2024-01-22T08:27:52.619Z,2.05
2024-01-22T08:28:52.633Z,2.03
2024-01-22T08:29:52.711Z,2.07
2024-01-22T08:30:52.746Z,2.10
2024-01-22T08:31:52.771Z,2.07
2024-01-22T08:32:53.089Z,2.16
2024-01-22T08:33:53.092Z,2.14
2024-01-22T08:34:52.941Z,2.16
2024-01-22T08:35:53.195Z,2.17
2024-01-22T08:36:52.948Z,2.18
2024-01-22T08:37:53.009Z,2.20
2024-01-22T08:38:53.109Z,2.23
2024-01-22T08:39:53.083Z,2.22
2024-01-22T08:40:53.106Z,2.26
2024-01-22T08:41:53.141Z,2.29
2024-01-22T08:42:53.351Z,2.32
2024-01-22T08:43:53.218Z,2.41
2024-01-22T08:44:53.239Z,2.48
2024-01-22T08:45:53.254Z,2.54
2024-01-22T08:46:53.244Z,2.59
2024-01-22T08:47:53.447Z,2.61
2024-01-22T08:48:53.433Z,2.72
2024-01-22T08:49:53.329Z,2.74
2024-01-22T08:50:53.304Z,2.74
2024-01-22T08:51:53.360Z,2.83
2024-01-22T08:52:53.366Z,2.80
2024-01-22T08:53:53.395Z,2.91
2024-01-22T08:54:53.379Z,2.95
2024-01-22T08:55:56.241Z,2.95
2024-01-22T08:56:53.442Z,2.95
2024-01-22T08:57:53.411Z,2.97
2024-01-22T08:58:53.527Z,3.03
2024-01-22T08:59:53.433Z,3.09
2024-01-22T09:00:53.440Z,3.19
2024-01-22T09:01:53.417Z,3.24
2024-01-22T09:02:53.738Z,3.23
2024-01-22T09:03:53.465Z,3.34
2024-01-22T09:04:53.474Z,3.38
2024-01-22T09:05:53.518Z,3.44
2024-01-22T09:06:53.449Z,3.44
2024-01-22T09:07:55.579Z,3.43
2024-01-22T09:08:53.415Z,3.48
2024-01-22T09:09:53.451Z,3.60
2024-01-22T09:10:53.424Z,3.57
2024-01-22T09:11:53.459Z,3.60
2024-01-22T09:12:53.444Z,3.62
2024-01-22T09:13:53.423Z,3.66
2024-01-22T09:14:53.419Z,3.76
2024-01-22T09:15:53.436Z,3.68
2024-01-22T09:16:53.420Z,3.75
2024-01-22T09:17:53.557Z,3.84
2024-01-22T09:18:53.514Z,3.82
2024-01-22T09:19:53.504Z,3.76
2024-01-22T09:20:53.503Z,3.87
2024-01-22T09:21:53.459Z,3.97
2024-01-22T09:22:53.451Z,3.92
2024-01-22T09:23:53.468Z,4.04
2024-01-22T09:24:53.438Z,4.02
2024-01-22T09:25:53.450Z,4.13
2024-01-22T09:26:53.500Z,4.10
2024-01-22T09:27:53.904Z,4.08
2024-01-22T09:28:53.436Z,3.99
2024-01-22T09:29:53.553Z,4.10
2024-01-22T09:30:53.477Z,4.16
2024-01-22T09:31:53.469Z,4.00
2024-01-22T09:32:53.966Z,4.03
2024-01-22T09:33:53.575Z,4.07
2024-01-22T09:34:53.499Z,3.99
2024-01-22T09:35:53.545Z,3.85
2024-01-22T09:36:53.492Z,3.80
2024-01-22T09:37:53.455Z,3.88
2024-01-22T09:38:53.500Z,3.94
2024-01-22T09:39:53.463Z,3.91
2024-01-22T09:40:53.454Z,3.74
2024-01-22T09:41:53.594Z,3.85
2024-01-22T09:42:53.471Z,3.85
2024-01-22T09:43:53.454Z,3.82
2024-01-22T09:44:53.507Z,3.78
2024-01-22T09:45:53.612Z,3.71
2024-01-22T09:46:53.588Z,3.62
2024-01-22T09:47:53.655Z,3.55
2024-01-22T09:48:53.610Z,3.43
2024-01-22T09:49:53.505Z,3.43
2024-01-22T09:50:53.508Z,3.40
2024-01-22T09:51:53.472Z,3.38
2024-01-22T09:52:53.873Z,3.29
2024-01-22T09:53:53.536Z,3.28
2024-01-22T09:54:53.521Z,3.19
2024-01-22T09:55:53.472Z,3.12
2024-01-22T09:56:53.477Z,3.08
2024-01-22T09:57:53.506Z,2.99
2024-01-22T09:58:53.467Z,2.98
2024-01-22T09:59:53.978Z,2.97
2024-01-22T10:00:53.651Z,2.92
2024-01-22T10:01:53.469Z,2.84
2024-01-22T10:02:53.509Z,2.76
2024-01-22T10:03:53.519Z,2.80
2024-01-22T10:04:53.486Z,2.72
2024-01-22T10:05:53.560Z,2.68
2024-01-22T10:06:53.675Z,2.66
2024-01-22T10:07:53.605Z,2.59
2024-01-22T10:08:53.665Z,2.64
2024-01-22T10:09:53.732Z,2.53
2024-01-22T10:10:53.845Z,2.52
2024-01-22T10:11:53.919Z,2.49
2024-01-22T10:12:53.908Z,2.41
2024-01-22T10:13:54.006Z,2.41
2024-01-22T10:14:54.071Z,2.36
2024-01-22T10:15:54.115Z,2.33
2024-01-22T10:16:54.189Z,2.30
2024-01-22T10:17:54.470Z,2.34
2024-01-22T10:18:54.483Z,2.22
2024-01-22T10:19:54.481Z,2.20
2024-01-22T10:20:54.488Z,2.16
2024-01-22T10:21:54.541Z,2.11
2024-01-22T10:22:54.683Z,2.12
2024-01-22T10:23:54.694Z,2.07
2024-01-22T10:24:54.747Z,2.07
2024-01-22T10:25:54.807Z,2.07
2024-01-22T10:26:54.927Z,2.04
2024-01-22T10:27:55.118Z,2.00
2024-01-22T10:28:55.026Z,1.97
2024-01-22T10:29:55.174Z,1.97
2024-01-22T10:30:55.173Z,1.94
2024-01-22T10:31:55.230Z,1.93
2024-01-22T10:32:55.445Z,1.91
2024-01-22T10:33:55.550Z,1.91
2024-01-22T10:34:55.513Z,1.91
2024-01-22T10:35:55.630Z,1.87
2024-01-22T10:36:55.581Z,1.77
2024-01-22T10:37:55.684Z,1.70
2024-01-22T10:38:55.731Z,1.71
2024-01-22T10:39:55.772Z,1.65
2024-01-22T10:40:55.846Z,1.60
2024-01-22T10:41:56.943Z,1.52
2024-01-22T10:42:56.443Z,1.54
2024-01-22T10:43:56.042Z,1.56
2024-01-22T10:44:56.142Z,1.54
2024-01-22T10:45:56.188Z,1.55
2024-01-22T10:46:56.237Z,1.56
2024-01-22T10:47:58.366Z,1.55
2024-01-22T10:48:56.389Z,1.53
2024-01-22T10:49:56.415Z,1.55
2024-01-22T10:50:56.406Z,1.57
2024-01-22T10:51:56.336Z,1.58
2024-01-22T10:52:56.322Z,1.56
2024-01-22T10:53:56.415Z,1.56
2024-01-22T10:54:56.319Z,1.57
2024-01-22T10:55:56.351Z,1.55
2024-01-22T10:56:56.409Z,1.55
2024-01-22T10:57:56.351Z,1.57
2024-01-22T10:58:56.397Z,1.55
2024-01-22T10:59:56.373Z,1.55
2024-01-22T11:00:56.357Z,1.49
2024-01-22T11:01:56.343Z,1.53
2024-01-22T11:02:56.381Z,1.52
2024-01-22T11:03:58.191Z,1.50
2024-01-22T11:04:56.340Z,1.50
2024-01-22T11:05:56.435Z,1.49
2024-01-22T11:06:56.347Z,1.51
2024-01-22T11:07:56.344Z,1.49
2024-01-22T11:08:56.575Z,1.49
2024-01-22T11:09:59.059Z,1.49
2024-01-22T11:10:56.351Z,1.48
2024-01-22T11:11:56.458Z,1.49
2024-01-22T11:12:56.395Z,1.50
2024-01-22T11:13:56.355Z,1.46
2024-01-22T11:14:56.456Z,1.43
2024-01-22T11:15:56.371Z,1.43
2024-01-22T11:16:56.392Z,1.45
2024-01-22T11:17:56.448Z,1.42
2024-01-22T11:18:56.593Z,1.42
2024-01-22T11:19:56.381Z,1.42
2024-01-22T11:20:56.406Z,1.38
2024-01-22T11:21:57.444Z,1.37
2024-01-22T11:22:56.373Z,1.36
2024-01-22T11:23:56.433Z,1.32
2024-01-22T11:24:56.376Z,1.36
2024-01-22T11:25:56.390Z,1.33
2024-01-22T11:26:56.514Z,1.34
2024-01-22T11:27:56.872Z,1.34
2024-01-22T11:28:56.500Z,1.31
2024-01-22T11:29:56.555Z,1.33
2024-01-22T11:30:56.600Z,1.32
2024-01-22T11:31:56.703Z,1.31
2024-01-22T11:32:56.805Z,1.32
2024-01-22T11:33:59.143Z,1.34
2024-01-22T11:34:58.210Z,1.35
2024-01-22T11:35:56.739Z,1.36
2024-01-22T11:36:56.676Z,1.37
2024-01-22T11:37:56.716Z,1.41
2024-01-22T11:38:56.945Z,1.46
2024-01-22T11:39:57.896Z,1.46
2024-01-22T11:40:56.686Z,1.44
2024-01-22T11:41:56.774Z,1.49
2024-01-22T11:42:56.832Z,1.48
2024-01-22T11:43:56.875Z,1.46
2024-01-22T11:44:56.995Z,1.46
2024-01-22T11:45:57.951Z,1.45
2024-01-22T11:46:57.032Z,1.45
2024-01-22T11:47:57.209Z,1.48
2024-01-22T11:48:57.407Z,1.46
2024-01-22T11:49:57.194Z,1.48
2024-01-22T11:50:57.299Z,1.52
2024-01-22T11:51:57.293Z,1.47
2024-01-22T11:52:57.383Z,1.44
2024-01-22T11:53:57.474Z,1.48
2024-01-22T11:54:57.518Z,1.49
2024-01-22T11:55:57.574Z,1.51
2024-01-22T11:56:57.655Z,1.52
2024-01-22T11:57:57.653Z,1.54
2024-01-22T11:58:57.751Z,1.52
2024-01-22T11:59:57.789Z,1.55
2024-01-22T12:00:57.949Z,1.54
2024-01-22T12:01:57.895Z,1.57
2024-01-22T12:02:58.108Z,1.58
2024-01-22T12:04:03.014Z,1.56
2024-01-22T12:04:59.010Z,1.56
2024-01-22T12:05:58.123Z,1.56
2024-01-22T12:06:58.052Z,1.58
2024-01-22T12:07:58.666Z,1.60
2024-01-22T12:08:58.027Z,1.64
2024-01-22T12:09:58.000Z,1.65
2024-01-22T12:10:58.004Z,1.67
2024-01-22T12:11:58.053Z,1.63
2024-01-22T12:12:58.025Z,1.67
2024-01-22T12:14:00.665Z,1.69
2024-01-22T12:14:58.113Z,1.71
2024-01-22T12:15:58.077Z,1.72
2024-01-22T12:16:58.078Z,1.68
2024-01-22T12:17:58.307Z,1.74
2024-01-22T12:18:58.121Z,1.78
2024-01-22T12:20:00.625Z,1.85
2024-01-22T12:20:58.090Z,1.85
2024-01-22T12:21:58.069Z,1.86
2024-01-22T12:22:58.100Z,1.87
2024-01-22T12:23:58.070Z,1.87
2024-01-22T12:24:58.081Z,1.89
2024-01-22T12:26:01.709Z,1.90
2024-01-22T12:26:59.082Z,1.91
2024-01-22T12:27:58.086Z,1.91
2024-01-22T12:28:58.081Z,1.92
2024-01-22T12:29:58.101Z,1.88
2024-01-22T12:30:58.083Z,1.92
2024-01-22T12:31:58.138Z,1.92
2024-01-22T12:32:58.218Z,1.90
2024-01-22T12:33:58.185Z,1.84
2024-01-22T12:34:58.172Z,1.85
2024-01-22T12:35:58.098Z,1.85
2024-01-22T12:36:58.095Z,1.84
2024-01-22T12:37:58.092Z,1.79
2024-01-22T12:38:58.156Z,1.75
2024-01-22T12:39:58.134Z,1.78
2024-01-22T12:40:58.119Z,1.72
2024-01-22T12:41:58.145Z,1.71
2024-01-22T12:42:58.115Z,1.69
2024-01-22T12:43:58.323Z,1.72
2024-01-22T12:44:58.141Z,1.70
2024-01-22T12:45:58.116Z,1.67
2024-01-22T12:46:58.112Z,1.61
2024-01-22T12:47:58.274Z,1.61
2024-01-22T12:48:59.019Z,1.58
2024-01-22T12:49:58.242Z,1.61
2024-01-22T12:50:58.199Z,1.59
2024-01-22T12:51:58.160Z,1.58
2024-01-22T12:52:58.184Z,1.55
2024-01-22T12:53:58.203Z,1.52
2024-01-22T12:54:58.186Z,1.53
2024-01-22T12:55:58.213Z,1.48
2024-01-22T12:56:58.247Z,1.49
2024-01-22T12:57:58.211Z,1.46
2024-01-22T12:58:58.285Z,1.46
2024-01-22T12:59:58.303Z,1.45
2024-01-22T13:00:58.292Z,1.41
2024-01-22T13:01:58.332Z,1.37
2024-01-22T13:02:58.366Z,1.35
2024-01-22T13:03:58.447Z,1.34
2024-01-22T13:04:58.314Z,1.32
2024-01-22T13:05:58.418Z,1.32
2024-01-22T13:06:58.509Z,1.32
2024-01-22T13:07:58.390Z,1.32
2024-01-22T13:08:58.416Z,1.27
2024-01-22T13:09:58.404Z,1.25
2024-01-22T13:10:58.424Z,1.26
2024-01-22T13:11:58.473Z,1.24
2024-01-22T13:12:58.470Z,1.24
2024-01-22T13:13:58.563Z,1.21
2024-01-22T13:14:58.538Z,1.19
2024-01-22T13:16:11.874Z,1.19
2024-01-22T13:16:59.603Z,1.19
2024-01-22T13:17:58.634Z,1.17
2024-01-22T13:18:58.719Z,1.18